Pocasset, Oklahoma
Current Conditions -  °F | °C
As of 3:55 AM on Tuesday 21 Oct 2014 (Local Time) from KRQO Reporting Station
Haze Haze  
Wind Chill: 59°   Ceiling: Unl
Heat Index: 59°   Visibility: 5mi
Dew Point: 55°   Wind: 8mph
Humidity: 88%   Direction: 170°S
Pressure: 30.06"   Gusts: NA
Location:  35.19°N, 97.95°W
Report Text: KRQO 210855Z AUTO 17007KT 5SM BR CLR 15/13 A3006 RMK AO2
Loading
Personal Weather Stations






























Interactive Weather Map New forecast layout! Learn more

10-Day Weather Forecast

Advertisements
Track Severe Weather on mobile